Aviation Digital Data Service (ADDS)

Output produced by METARs form (1244 UTC 29 July 2014)
found at http://aviationweather.gov/adds/metars/
 
KBGR 291122Z 2912/3012 25007KT P6SM BKN015 
     FM291400 26007KT P6SM BKN035 
     FM291600 26008KT P6SM SCT050 
     FM292000 25008KT P6SM SCT200 
     FM300100 21004KT P6SM FEW250